sensor_id;sensor_type;location;lat;lon;timestamp;pressure;altitude;pressure_sealevel;temperature;humidity
7532;BME280;3807;49.030;8.714;2023-06-22T00:01:03;99264.81;;;27.36;52.61
7532;BME280;3807;49.030;8.714;2023-06-22T00:03:28;99268.09;;;27.38;52.50
7532;BME280;3807;49.030;8.714;2023-06-22T00:05:53;99267.56;;;27.26;52.84
7532;BME280;3807;49.030;8.714;2023-06-22T00:08:19;99254.66;;;27.33;52.57
7532;BME280;3807;49.030;8.714;2023-06-22T00:10:48;99253.53;;;27.27;52.87
7532;BME280;3807;49.030;8.714;2023-06-22T00:13:13;99264.94;;;27.26;52.83
7532;BME280;3807;49.030;8.714;2023-06-22T00:15:40;99276.87;;;27.28;52.74
7532;BME280;3807;49.030;8.714;2023-06-22T00:18:06;99277.37;;;27.24;52.89
7532;BME280;3807;49.030;8.714;2023-06-22T00:20:32;99274.28;;;27.28;52.75
7532;BME280;3807;49.030;8.714;2023-06-22T00:22:59;99263.63;;;27.30;52.62
7532;BME280;3807;49.030;8.714;2023-06-22T00:25:25;99270.66;;;27.21;52.75
7532;BME280;3807;49.030;8.714;2023-06-22T00:27:50;99266.50;;;27.11;53.12
7532;BME280;3807;49.030;8.714;2023-06-22T00:30:16;99261.00;;;27.14;52.99
7532;BME280;3807;49.030;8.714;2023-06-22T00:32:43;99281.12;;;27.21;52.69
7532;BME280;3807;49.030;8.714;2023-06-22T00:35:08;99291.59;;;27.29;52.41
7532;BME280;3807;49.030;8.714;2023-06-22T00:37:35;99307.34;;;27.12;53.00
7532;BME280;3807;49.030;8.714;2023-06-22T00:40:01;99344.44;;;27.07;53.03
7532;BME280;3807;49.030;8.714;2023-06-22T00:42:26;99391.41;;;27.17;52.86
7532;BME280;3807;49.030;8.714;2023-06-22T00:44:52;99478.88;;;27.04;53.21
7532;BME280;3807;49.030;8.714;2023-06-22T00:47:18;99550.91;;;26.81;54.17
7532;BME280;3807;49.030;8.714;2023-06-22T00:49:44;99537.97;;;26.44;55.40
7532;BME280;3807;49.030;8.714;2023-06-22T00:52:11;99399.44;;;26.71;54.36
7532;BME280;3807;49.030;8.714;2023-06-22T00:54:42;99308.88;;;26.88;53.70
7532;BME280;3807;49.030;8.714;2023-06-22T00:57:12;99308.31;;;26.68;54.28
7532;BME280;3807;49.030;8.714;2023-06-22T00:59:42;99313.16;;;26.63;54.71
7532;BME280;3807;49.030;8.714;2023-06-22T01:02:08;99311.38;;;26.64;54.81
7532;BME280;3807;49.030;8.714;2023-06-22T01:04:35;99310.16;;;26.76;54.64
7532;BME280;3807;49.030;8.714;2023-06-22T01:10:04;99308.72;;;26.55;55.36
7532;BME280;3807;49.030;8.714;2023-06-22T01:12:38;99304.78;;;26.51;55.52
7532;BME280;3807;49.030;8.714;2023-06-22T01:15:08;99305.25;;;26.47;55.79
7532;BME280;3807;49.030;8.714;2023-06-22T01:17:36;99307.75;;;26.38;56.12
7532;BME280;3807;49.030;8.714;2023-06-22T01:20:06;99315.37;;;26.50;55.97
7532;BME280;3807;49.030;8.714;2023-06-22T01:22:44;99317.75;;;26.43;56.10
7532;BME280;3807;49.030;8.714;2023-06-22T01:25:20;99313.16;;;26.37;56.31
7532;BME280;3807;49.030;8.714;2023-06-22T01:30:30;99325.72;;;26.42;56.24
7532;BME280;3807;49.030;8.714;2023-06-22T01:32:58;99324.91;;;26.41;56.36
7532;BME280;3807;49.030;8.714;2023-06-22T01:35:24;99325.00;;;26.31;56.37
7532;BME280;3807;49.030;8.714;2023-06-22T01:37:50;99316.38;;;26.31;56.35
7532;BME280;3807;49.030;8.714;2023-06-22T01:40:16;99325.78;;;26.24;56.79
7532;BME280;3807;49.030;8.714;2023-06-22T01:42:42;99326.06;;;26.21;56.76
7532;BME280;3807;49.030;8.714;2023-06-22T01:45:09;99322.81;;;26.19;56.87
7532;BME280;3807;49.030;8.714;2023-06-22T01:47:35;99328.47;;;26.14;57.09
7532;BME280;3807;49.030;8.714;2023-06-22T01:50:01;99331.88;;;26.14;57.01
7532;BME280;3807;49.030;8.714;2023-06-22T01:52:26;99338.47;;;26.19;57.15
7532;BME280;3807;49.030;8.714;2023-06-22T01:54:51;99337.84;;;26.25;56.88
7532;BME280;3807;49.030;8.714;2023-06-22T01:57:17;99335.47;;;26.13;57.21
7532;BME280;3807;49.030;8.714;2023-06-22T02:02:21;99345.69;;;26.07;57.28
7532;BME280;3807;49.030;8.714;2023-06-22T02:04:57;99337.81;;;25.99;57.70
7532;BME280;3807;49.030;8.714;2023-06-22T02:07:28;99344.66;;;26.00;57.66
7532;BME280;3807;49.030;8.714;2023-06-22T02:09:55;99335.56;;;25.86;58.19
7532;BME280;3807;49.030;8.714;2023-06-22T02:12:23;99340.19;;;25.92;57.87
7532;BME280;3807;49.030;8.714;2023-06-22T02:14:51;99329.81;;;26.00;57.55
7532;BME280;3807;49.030;8.714;2023-06-22T02:17:17;99330.06;;;25.89;57.95
7532;BME280;3807;49.030;8.714;2023-06-22T02:19:43;99332.72;;;25.79;58.28
7532;BME280;3807;49.030;8.714;2023-06-22T02:22:09;99325.72;;;25.80;58.34
7532;BME280;3807;49.030;8.714;2023-06-22T02:24:34;99319.94;;;25.76;58.31
7532;BME280;3807;49.030;8.714;2023-06-22T02:27:01;99306.53;;;25.71;58.51
7532;BME280;3807;49.030;8.714;2023-06-22T02:29:27;99305.03;;;25.69;58.70
7532;BME280;3807;49.030;8.714;2023-06-22T02:31:53;99309.88;;;25.63;58.81
7532;BME280;3807;49.030;8.714;2023-06-22T02:34:19;99312.63;;;25.62;58.82
7532;BME280;3807;49.030;8.714;2023-06-22T02:36:46;99316.38;;;25.59;58.87
7532;BME280;3807;49.030;8.714;2023-06-22T02:39:24;99309.50;;;25.58;58.90
7532;BME280;3807;49.030;8.714;2023-06-22T02:41:51;99307.63;;;25.51;59.20
7532;BME280;3807;49.030;8.714;2023-06-22T02:44:17;99300.91;;;25.48;59.15
7532;BME280;3807;49.030;8.714;2023-06-22T02:46:43;99300.25;;;25.46;59.18
7532;BME280;3807;49.030;8.714;2023-06-22T02:49:10;99291.63;;;25.46;59.10
7532;BME280;3807;49.030;8.714;2023-06-22T02:51:38;99293.50;;;25.53;59.00
7532;BME280;3807;49.030;8.714;2023-06-22T02:54:05;99294.44;;;25.52;58.97
7532;BME280;3807;49.030;8.714;2023-06-22T02:56:30;99298.41;;;25.38;59.22
7532;BME280;3807;49.030;8.714;2023-06-22T02:58:56;99282.06;;;25.36;59.37
7532;BME280;3807;49.030;8.714;2023-06-22T03:01:27;99285.13;;;25.32;59.46
7532;BME280;3807;49.030;8.714;2023-06-22T03:03:53;99289.72;;;25.38;59.23
7532;BME280;3807;49.030;8.714;2023-06-22T03:06:20;99288.53;;;25.32;59.36
7532;BME280;3807;49.030;8.714;2023-06-22T03:08:50;99278.97;;;25.23;59.62
7532;BME280;3807;49.030;8.714;2023-06-22T03:11:15;99280.94;;;25.21;59.71
7532;BME280;3807;49.030;8.714;2023-06-22T03:13:41;99275.19;;;25.17;59.61
7532;BME280;3807;49.030;8.714;2023-06-22T03:16:06;99283.59;;;25.11;59.78
7532;BME280;3807;49.030;8.714;2023-06-22T03:18:31;99280.00;;;25.12;59.70
7532;BME280;3807;49.030;8.714;2023-06-22T03:20:57;99273.97;;;25.12;59.75
7532;BME280;3807;49.030;8.714;2023-06-22T03:23:22;99262.19;;;25.08;59.77
7532;BME280;3807;49.030;8.714;2023-06-22T03:25:47;99264.25;;;25.04;59.89
7532;BME280;3807;49.030;8.714;2023-06-22T03:28:13;99261.94;;;25.01;59.95
7532;BME280;3807;49.030;8.714;2023-06-22T03:30:38;99262.16;;;25.17;59.54
7532;BME280;3807;49.030;8.714;2023-06-22T03:33:03;99263.56;;;25.02;59.86
7532;BME280;3807;49.030;8.714;2023-06-22T03:35:29;99257.81;;;24.99;59.85
7532;BME280;3807;49.030;8.714;2023-06-22T03:37:54;99263.59;;;24.92;60.17
7532;BME280;3807;49.030;8.714;2023-06-22T03:40:20;99265.94;;;24.95;60.03
7532;BME280;3807;49.030;8.714;2023-06-22T03:42:46;99269.50;;;24.94;59.93
7532;BME280;3807;49.030;8.714;2023-06-22T03:45:11;99270.22;;;24.87;60.19
7532;BME280;3807;49.030;8.714;2023-06-22T03:47:36;99266.66;;;24.88;60.00
7532;BME280;3807;49.030;8.714;2023-06-22T03:50:02;99256.50;;;24.85;60.11
7532;BME280;3807;49.030;8.714;2023-06-22T03:52:29;99265.03;;;24.87;60.06
7532;BME280;3807;49.030;8.714;2023-06-22T03:54:55;99261.87;;;24.83;60.13
7532;BME280;3807;49.030;8.714;2023-06-22T03:57:20;99260.38;;;24.81;60.21
7532;BME280;3807;49.030;8.714;2023-06-22T03:59:45;99256.56;;;24.75;60.28
7532;BME280;3807;49.030;8.714;2023-06-22T04:02:10;99260.00;;;24.76;60.29
7532;BME280;3807;49.030;8.714;2023-06-22T04:04:36;99256.03;;;24.71;60.55
7532;BME280;3807;49.030;8.714;2023-06-22T04:07:01;99259.75;;;24.69;60.42
7532;BME280;3807;49.030;8.714;2023-06-22T04:09:26;99244.94;;;24.69;60.46
7532;BME280;3807;49.030;8.714;2023-06-22T04:11:52;99240.28;;;24.63;60.57
7532;BME280;3807;49.030;8.714;2023-06-22T04:14:17;99242.19;;;24.71;60.52
7532;BME280;3807;49.030;8.714;2023-06-22T04:16:42;99242.09;;;24.63;60.55
7532;BME280;3807;49.030;8.714;2023-06-22T04:19:08;99243.28;;;24.68;60.44
7532;BME280;3807;49.030;8.714;2023-06-22T04:21:39;99245.50;;;24.63;60.65
7532;BME280;3807;49.030;8.714;2023-06-22T04:24:04;99244.94;;;24.69;60.33
7532;BME280;3807;49.030;8.714;2023-06-22T04:26:30;99238.13;;;24.59;60.78
7532;BME280;3807;49.030;8.714;2023-06-22T04:28:55;99234.47;;;24.52;60.79
7532;BME280;3807;49.030;8.714;2023-06-22T04:31:21;99235.28;;;24.52;60.92
7532;BME280;3807;49.030;8.714;2023-06-22T04:33:46;99223.41;;;24.67;60.35
7532;BME280;3807;49.030;8.714;2023-06-22T04:36:11;99223.81;;;24.73;60.29
7532;BME280;3807;49.030;8.714;2023-06-22T04:38:40;99221.09;;;24.64;60.36
7532;BME280;3807;49.030;8.714;2023-06-22T04:41:05;99220.22;;;24.46;60.93
7532;BME280;3807;49.030;8.714;2023-06-22T04:43:31;99217.44;;;24.57;60.72
7532;BME280;3807;49.030;8.714;2023-06-22T04:45:57;99227.03;;;24.57;60.75
7532;BME280;3807;49.030;8.714;2023-06-22T04:48:28;99226.47;;;24.63;60.45
7532;BME280;3807;49.030;8.714;2023-06-22T04:50:58;99226.91;;;24.58;60.63
7532;BME280;3807;49.030;8.714;2023-06-22T04:53:30;99225.81;;;24.51;61.16
7532;BME280;3807;49.030;8.714;2023-06-22T04:55:56;99224.06;;;24.42;61.16
7532;BME280;3807;49.030;8.714;2023-06-22T04:58:21;99223.78;;;24.35;61.47
7532;BME280;3807;49.030;8.714;2023-06-22T05:00:47;99230.50;;;24.38;61.45
7532;BME280;3807;49.030;8.714;2023-06-22T05:03:12;99226.41;;;24.45;61.09
7532;BME280;3807;49.030;8.714;2023-06-22T05:05:38;99218.31;;;24.48;60.84
7532;BME280;3807;49.030;8.714;2023-06-22T05:08:03;99216.91;;;24.44;61.18
7532;BME280;3807;49.030;8.714;2023-06-22T05:10:32;99210.38;;;24.40;61.21
7532;BME280;3807;49.030;8.714;2023-06-22T05:12:57;99210.50;;;24.29;61.60
7532;BME280;3807;49.030;8.714;2023-06-22T05:15:23;99213.72;;;24.60;60.67
7532;BME280;3807;49.030;8.714;2023-06-22T05:17:51;99209.34;;;24.60;60.32
7532;BME280;3807;49.030;8.714;2023-06-22T05:20:17;99204.06;;;24.42;61.15
7532;BME280;3807;49.030;8.714;2023-06-22T05:22:43;99199.09;;;24.49;60.60
7532;BME280;3807;49.030;8.714;2023-06-22T05:25:10;99203.25;;;24.42;60.87
7532;BME280;3807;49.030;8.714;2023-06-22T05:27:35;99200.34;;;24.45;60.83
7532;BME280;3807;49.030;8.714;2023-06-22T05:30:05;99192.53;;;24.35;61.21
7532;BME280;3807;49.030;8.714;2023-06-22T05:32:32;99188.13;;;24.55;60.60
7532;BME280;3807;49.030;8.714;2023-06-22T05:34:57;99194.75;;;24.30;61.32
7532;BME280;3807;49.030;8.714;2023-06-22T05:37:22;99184.09;;;24.23;61.56
7532;BME280;3807;49.030;8.714;2023-06-22T05:39:48;99194.25;;;24.17;62.08
7532;BME280;3807;49.030;8.714;2023-06-22T05:42:13;99194.50;;;24.23;61.88
7532;BME280;3807;49.030;8.714;2023-06-22T05:44:38;99193.66;;;24.42;61.28
7532;BME280;3807;49.030;8.714;2023-06-22T05:47:05;99194.47;;;24.43;61.16
7532;BME280;3807;49.030;8.714;2023-06-22T05:49:31;99202.53;;;24.50;60.79
7532;BME280;3807;49.030;8.714;2023-06-22T05:51:58;99193.13;;;24.29;61.43
7532;BME280;3807;49.030;8.714;2023-06-22T05:54:24;99199.81;;;24.32;61.49
7532;BME280;3807;49.030;8.714;2023-06-22T05:56:50;99194.88;;;24.48;60.89
7532;BME280;3807;49.030;8.714;2023-06-22T05:59:15;99188.59;;;24.41;61.34
7532;BME280;3807;49.030;8.714;2023-06-22T06:01:41;99184.47;;;24.48;60.98
7532;BME280;3807;49.030;8.714;2023-06-22T06:04:06;99178.66;;;24.54;60.62
7532;BME280;3807;49.030;8.714;2023-06-22T06:06:34;99184.84;;;24.53;61.11
7532;BME280;3807;49.030;8.714;2023-06-22T06:09:03;99195.28;;;24.43;61.28
7532;BME280;3807;49.030;8.714;2023-06-22T06:11:28;99186.34;;;24.56;60.90
7532;BME280;3807;49.030;8.714;2023-06-22T06:13:54;99191.56;;;24.36;61.63
7532;BME280;3807;49.030;8.714;2023-06-22T06:16:19;99188.69;;;24.49;61.12
7532;BME280;3807;49.030;8.714;2023-06-22T06:18:44;99197.00;;;24.62;60.86
7532;BME280;3807;49.030;8.714;2023-06-22T06:21:09;99196.19;;;24.62;60.95
7532;BME280;3807;49.030;8.714;2023-06-22T06:23:35;99206.00;;;24.68;60.91
7532;BME280;3807;49.030;8.714;2023-06-22T06:26:00;99195.66;;;24.58;61.30
7532;BME280;3807;49.030;8.714;2023-06-22T06:28:26;99195.97;;;24.45;61.73
7532;BME280;3807;49.030;8.714;2023-06-22T06:30:52;99208.53;;;24.50;61.40
7532;BME280;3807;49.030;8.714;2023-06-22T06:33:17;99204.16;;;24.51;61.79
7532;BME280;3807;49.030;8.714;2023-06-22T06:35:42;99193.66;;;24.42;61.89
7532;BME280;3807;49.030;8.714;2023-06-22T06:38:08;99196.50;;;24.49;61.88
7532;BME280;3807;49.030;8.714;2023-06-22T06:40:33;99189.84;;;24.64;61.66
7532;BME280;3807;49.030;8.714;2023-06-22T06:42:58;99181.38;;;24.62;61.62
7532;BME280;3807;49.030;8.714;2023-06-22T06:45:24;99174.12;;;24.56;61.94
7532;BME280;3807;49.030;8.714;2023-06-22T06:47:51;99166.31;;;24.56;61.88
7532;BME280;3807;49.030;8.714;2023-06-22T06:50:17;99169.78;;;24.75;61.53
7532;BME280;3807;49.030;8.714;2023-06-22T06:52:43;99156.75;;;24.75;61.38
7532;BME280;3807;49.030;8.714;2023-06-22T06:55:09;99160.13;;;24.85;61.34
7532;BME280;3807;49.030;8.714;2023-06-22T06:57:39;99156.56;;;24.86;61.14
7532;BME280;3807;49.030;8.714;2023-06-22T07:00:09;99146.06;;;24.78;61.42
7532;BME280;3807;49.030;8.714;2023-06-22T07:02:38;99141.28;;;24.73;61.76
7532;BME280;3807;49.030;8.714;2023-06-22T07:05:05;99146.75;;;24.80;61.99
7532;BME280;3807;49.030;8.714;2023-06-22T07:07:31;99141.75;;;24.86;61.38
7532;BME280;3807;49.030;8.714;2023-06-22T07:09:56;99129.56;;;24.87;61.63
7532;BME280;3807;49.030;8.714;2023-06-22T07:12:21;99136.41;;;24.88;61.77
7532;BME280;3807;49.030;8.714;2023-06-22T07:14:47;99142.13;;;24.91;61.40
7532;BME280;3807;49.030;8.714;2023-06-22T07:17:12;99140.72;;;24.97;60.70
7532;BME280;3807;49.030;8.714;2023-06-22T07:19:37;99142.84;;;25.11;60.61
7532;BME280;3807;49.030;8.714;2023-06-22T07:22:04;99146.13;;;25.13;60.37
7532;BME280;3807;49.030;8.714;2023-06-22T07:24:29;99140.53;;;25.26;60.17
7532;BME280;3807;49.030;8.714;2023-06-22T07:26:54;99136.00;;;25.28;59.83
7532;BME280;3807;49.030;8.714;2023-06-22T07:29:20;99135.03;;;25.29;59.79
7532;BME280;3807;49.030;8.714;2023-06-22T07:31:47;99140.88;;;25.31;59.43
7532;BME280;3807;49.030;8.714;2023-06-22T07:34:12;99133.97;;;25.40;59.94
7532;BME280;3807;49.030;8.714;2023-06-22T07:36:38;99126.50;;;25.45;59.16
7532;BME280;3807;49.030;8.714;2023-06-22T07:39:03;99126.28;;;25.56;58.63
7532;BME280;3807;49.030;8.714;2023-06-22T07:41:29;99122.22;;;25.36;59.10
7532;BME280;3807;49.030;8.714;2023-06-22T07:43:55;99124.87;;;25.44;61.10
7532;BME280;3807;49.030;8.714;2023-06-22T07:46:20;99107.72;;;25.59;58.83
7532;BME280;3807;49.030;8.714;2023-06-22T07:48:45;99111.84;;;25.88;58.68
7532;BME280;3807;49.030;8.714;2023-06-22T07:51:11;99115.91;;;25.90;61.29
7532;BME280;3807;49.030;8.714;2023-06-22T07:53:44;99110.56;;;25.92;61.12
7532;BME280;3807;49.030;8.714;2023-06-22T07:56:13;99111.38;;;25.93;61.62
7532;BME280;3807;49.030;8.714;2023-06-22T07:58:39;99110.88;;;25.89;61.29
7532;BME280;3807;49.030;8.714;2023-06-22T08:01:05;99124.97;;;26.04;61.20
7532;BME280;3807;49.030;8.714;2023-06-22T08:03:31;99117.00;;;26.06;61.41
7532;BME280;3807;49.030;8.714;2023-06-22T08:05:57;99110.28;;;26.03;61.28
7532;BME280;3807;49.030;8.714;2023-06-22T08:08:22;99110.31;;;26.11;61.04
7532;BME280;3807;49.030;8.714;2023-06-22T08:10:47;99111.72;;;26.32;60.66
7532;BME280;3807;49.030;8.714;2023-06-22T08:13:13;99120.25;;;26.42;60.44
7532;BME280;3807;49.030;8.714;2023-06-22T08:15:38;99119.25;;;26.35;60.51
7532;BME280;3807;49.030;8.714;2023-06-22T08:18:05;99123.34;;;26.37;60.41
7532;BME280;3807;49.030;8.714;2023-06-22T08:20:30;99131.09;;;26.55;59.99
7532;BME280;3807;49.030;8.714;2023-06-22T08:22:56;99135.34;;;26.56;60.06
7532;BME280;3807;49.030;8.714;2023-06-22T08:25:23;99139.75;;;26.56;59.93
7532;BME280;3807;49.030;8.714;2023-06-22T08:27:48;99133.88;;;26.54;59.74
7532;BME280;3807;49.030;8.714;2023-06-22T08:30:15;99140.75;;;26.63;59.35
7532;BME280;3807;49.030;8.714;2023-06-22T08:32:40;99153.50;;;26.66;59.31
7532;BME280;3807;49.030;8.714;2023-06-22T08:35:06;99162.37;;;26.81;59.25
7532;BME280;3807;49.030;8.714;2023-06-22T08:37:34;99161.09;;;26.94;58.92
7532;BME280;3807;49.030;8.714;2023-06-22T08:40:02;99179.25;;;27.12;58.42
7532;BME280;3807;49.030;8.714;2023-06-22T08:42:32;99192.81;;;26.99;58.58
7532;BME280;3807;49.030;8.714;2023-06-22T08:44:57;99196.47;;;27.22;58.21
7532;BME280;3807;49.030;8.714;2023-06-22T08:47:23;99233.09;;;26.88;59.04
7532;BME280;3807;49.030;8.714;2023-06-22T08:49:48;99242.97;;;27.02;58.39
7532;BME280;3807;49.030;8.714;2023-06-22T08:52:14;99225.44;;;27.37;57.74
7532;BME280;3807;49.030;8.714;2023-06-22T08:54:40;99198.13;;;27.31;58.05
7532;BME280;3807;49.030;8.714;2023-06-22T08:57:05;99169.19;;;27.17;58.57
7532;BME280;3807;49.030;8.714;2023-06-22T08:59:30;99154.94;;;27.19;58.55
7532;BME280;3807;49.030;8.714;2023-06-22T09:01:56;99135.50;;;27.30;58.58
7532;BME280;3807;49.030;8.714;2023-06-22T09:04:21;99113.94;;;27.28;58.62
7532;BME280;3807;49.030;8.714;2023-06-22T09:06:47;99081.25;;;27.32;58.36
7532;BME280;3807;49.030;8.714;2023-06-22T09:09:13;99068.84;;;27.34;58.24
7532;BME280;3807;49.030;8.714;2023-06-22T09:11:39;99075.19;;;27.48;57.97
7532;BME280;3807;49.030;8.714;2023-06-22T09:14:05;99070.44;;;27.51;57.71
7532;BME280;3807;49.030;8.714;2023-06-22T09:16:30;99069.28;;;27.62;57.46
7532;BME280;3807;49.030;8.714;2023-06-22T09:18:56;99098.53;;;27.66;57.45
7532;BME280;3807;49.030;8.714;2023-06-22T09:21:21;99103.94;;;27.64;57.65
7532;BME280;3807;49.030;8.714;2023-06-22T09:23:47;99110.50;;;27.76;57.00
7532;BME280;3807;49.030;8.714;2023-06-22T09:26:16;99108.47;;;27.95;56.79
7532;BME280;3807;49.030;8.714;2023-06-22T09:28:42;99112.56;;;27.97;56.82
7532;BME280;3807;49.030;8.714;2023-06-22T09:31:07;99108.63;;;28.01;56.81
7532;BME280;3807;49.030;8.714;2023-06-22T09:33:32;99109.06;;;28.13;56.30
7532;BME280;3807;49.030;8.714;2023-06-22T09:35:58;99117.87;;;28.20;56.69
7532;BME280;3807;49.030;8.714;2023-06-22T09:38:23;99105.44;;;28.22;56.53
7532;BME280;3807;49.030;8.714;2023-06-22T09:40:48;99097.84;;;28.36;55.93
7532;BME280;3807;49.030;8.714;2023-06-22T09:43:14;99109.13;;;28.44;55.92
7532;BME280;3807;49.030;8.714;2023-06-22T09:45:39;99094.81;;;28.55;55.65
7532;BME280;3807;49.030;8.714;2023-06-22T09:48:05;99084.13;;;28.65;55.57
7532;BME280;3807;49.030;8.714;2023-06-22T09:50:30;99087.00;;;28.78;55.33
7532;BME280;3807;49.030;8.714;2023-06-22T09:52:55;99089.16;;;28.75;55.37
7532;BME280;3807;49.030;8.714;2023-06-22T09:55:21;99084.25;;;28.71;55.42
7532;BME280;3807;49.030;8.714;2023-06-22T09:57:47;99082.97;;;28.90;55.28
7532;BME280;3807;49.030;8.714;2023-06-22T10:00:15;99074.34;;;28.82;55.44
7532;BME280;3807;49.030;8.714;2023-06-22T10:02:41;99065.63;;;28.89;54.81
7532;BME280;3807;49.030;8.714;2023-06-22T10:05:07;99059.97;;;29.01;54.91
7532;BME280;3807;49.030;8.714;2023-06-22T10:07:33;99064.19;;;29.10;54.83
7532;BME280;3807;49.030;8.714;2023-06-22T10:09:58;99062.03;;;29.13;54.67
7532;BME280;3807;49.030;8.714;2023-06-22T10:12:25;99052.09;;;29.24;54.44
7532;BME280;3807;49.030;8.714;2023-06-22T10:14:50;99050.19;;;29.32;54.28
7532;BME280;3807;49.030;8.714;2023-06-22T10:17:15;99044.78;;;29.49;53.69
7532;BME280;3807;49.030;8.714;2023-06-22T10:19:41;99042.41;;;29.62;53.42
7532;BME280;3807;49.030;8.714;2023-06-22T10:22:06;99038.06;;;29.69;53.58
7532;BME280;3807;49.030;8.714;2023-06-22T10:24:32;99032.09;;;29.60;53.70
7532;BME280;3807;49.030;8.714;2023-06-22T10:26:57;99030.06;;;29.77;53.36
7532;BME280;3807;49.030;8.714;2023-06-22T10:29:22;99030.63;;;29.73;53.25
7532;BME280;3807;49.030;8.714;2023-06-22T10:31:48;99029.34;;;29.83;53.20
7532;BME280;3807;49.030;8.714;2023-06-22T10:34:13;99019.59;;;29.92;52.70
7532;BME280;3807;49.030;8.714;2023-06-22T10:36:38;99029.25;;;29.91;52.69
7532;BME280;3807;49.030;8.714;2023-06-22T10:39:04;99032.59;;;30.00;52.48
7532;BME280;3807;49.030;8.714;2023-06-22T10:41:29;99024.16;;;30.05;52.75
7532;BME280;3807;49.030;8.714;2023-06-22T10:43:56;99023.69;;;30.16;51.98
7532;BME280;3807;49.030;8.714;2023-06-22T10:46:21;99013.84;;;30.18;52.16
7532;BME280;3807;49.030;8.714;2023-06-22T10:48:46;99023.69;;;30.31;51.97
7532;BME280;3807;49.030;8.714;2023-06-22T10:51:12;99018.87;;;30.34;52.08
7532;BME280;3807;49.030;8.714;2023-06-22T10:53:37;99020.56;;;30.42;51.68
7532;BME280;3807;49.030;8.714;2023-06-22T10:56:02;99024.13;;;30.34;51.87
7532;BME280;3807;49.030;8.714;2023-06-22T10:58:28;99020.19;;;30.45;50.85
7532;BME280;3807;49.030;8.714;2023-06-22T11:00:53;99019.91;;;30.55;51.36
7532;BME280;3807;49.030;8.714;2023-06-22T11:03:18;99014.75;;;30.68;50.64
7532;BME280;3807;49.030;8.714;2023-06-22T11:05:44;99027.88;;;30.68;50.82
7532;BME280;3807;49.030;8.714;2023-06-22T11:08:09;99023.06;;;30.72;50.66
7532;BME280;3807;49.030;8.714;2023-06-22T11:10:35;99027.16;;;30.74;50.54
7532;BME280;3807;49.030;8.714;2023-06-22T11:13:00;99022.41;;;30.84;50.13
7532;BME280;3807;49.030;8.714;2023-06-22T11:15:27;99030.78;;;30.95;50.18
7532;BME280;3807;49.030;8.714;2023-06-22T11:17:53;99020.72;;;30.98;50.28
7532;BME280;3807;49.030;8.714;2023-06-22T11:20:18;99019.19;;;30.82;50.64
7532;BME280;3807;49.030;8.714;2023-06-22T11:22:43;99019.56;;;31.07;49.74
7532;BME280;3807;49.030;8.714;2023-06-22T11:25:09;99032.37;;;31.17;49.66
7532;BME280;3807;49.030;8.714;2023-06-22T11:27:36;99028.50;;;31.13;49.80
7532;BME280;3807;49.030;8.714;2023-06-22T11:30:01;99018.06;;;31.26;49.65
7532;BME280;3807;49.030;8.714;2023-06-22T11:32:26;99009.97;;;31.21;49.46
7532;BME280;3807;49.030;8.714;2023-06-22T11:34:52;99023.22;;;31.35;49.47
7532;BME280;3807;49.030;8.714;2023-06-22T11:37:17;99015.34;;;31.41;49.24
7532;BME280;3807;49.030;8.714;2023-06-22T11:39:42;99004.03;;;31.41;49.17
7532;BME280;3807;49.030;8.714;2023-06-22T11:42:09;99001.00;;;31.44;48.88
7532;BME280;3807;49.030;8.714;2023-06-22T11:44:34;98993.78;;;31.52;48.59
7532;BME280;3807;49.030;8.714;2023-06-22T11:46:59;98990.53;;;31.50;48.75
7532;BME280;3807;49.030;8.714;2023-06-22T11:49:26;98981.59;;;31.51;49.02
7532;BME280;3807;49.030;8.714;2023-06-22T11:51:51;98982.88;;;31.62;48.05
7532;BME280;3807;49.030;8.714;2023-06-22T11:54:17;98977.28;;;31.78;48.01
7532;BME280;3807;49.030;8.714;2023-06-22T11:56:42;98983.16;;;31.74;48.26
7532;BME280;3807;49.030;8.714;2023-06-22T11:59:07;98988.84;;;31.77;47.84
7532;BME280;3807;49.030;8.714;2023-06-22T12:01:33;98990.84;;;31.75;47.67
7532;BME280;3807;49.030;8.714;2023-06-22T12:03:58;98994.69;;;31.79;48.00
7532;BME280;3807;49.030;8.714;2023-06-22T12:06:24;99000.25;;;31.91;47.60
7532;BME280;3807;49.030;8.714;2023-06-22T12:08:49;99008.38;;;31.96;47.52
7532;BME280;3807;49.030;8.714;2023-06-22T12:11:14;99004.94;;;31.96;47.26
7532;BME280;3807;49.030;8.714;2023-06-22T12:13:40;98993.63;;;32.02;47.42
7532;BME280;3807;49.030;8.714;2023-06-22T12:16:05;98992.41;;;32.11;47.53
7532;BME280;3807;49.030;8.714;2023-06-22T12:18:30;98996.28;;;32.09;47.57
7532;BME280;3807;49.030;8.714;2023-06-22T12:20:56;99000.09;;;32.06;47.51
7532;BME280;3807;49.030;8.714;2023-06-22T12:23:21;99003.19;;;32.23;47.20
7532;BME280;3807;49.030;8.714;2023-06-22T12:25:46;99018.22;;;32.36;47.13
7532;BME280;3807;49.030;8.714;2023-06-22T12:28:12;99030.16;;;32.32;46.59
7532;BME280;3807;49.030;8.714;2023-06-22T12:30:37;99038.53;;;32.42;46.76
7532;BME280;3807;49.030;8.714;2023-06-22T12:33:02;99043.75;;;32.35;47.09
7532;BME280;3807;49.030;8.714;2023-06-22T12:35:28;99042.56;;;32.38;47.23
7532;BME280;3807;49.030;8.714;2023-06-22T12:37:53;99040.13;;;32.36;47.24
7532;BME280;3807;49.030;8.714;2023-06-22T12:40:18;99033.63;;;32.39;47.15
7532;BME280;3807;49.030;8.714;2023-06-22T12:42:45;99033.25;;;32.42;46.76
7532;BME280;3807;49.030;8.714;2023-06-22T12:45:10;99030.88;;;32.54;46.79
7532;BME280;3807;49.030;8.714;2023-06-22T12:47:35;99027.44;;;32.66;46.70
7532;BME280;3807;49.030;8.714;2023-06-22T12:50:01;99020.75;;;32.57;46.48
7532;BME280;3807;49.030;8.714;2023-06-22T12:52:26;99017.50;;;32.62;46.27
7532;BME280;3807;49.030;8.714;2023-06-22T12:54:51;99010.00;;;32.72;46.01
7532;BME280;3807;49.030;8.714;2023-06-22T12:57:17;99006.97;;;32.75;46.05
7532;BME280;3807;49.030;8.714;2023-06-22T12:59:44;99012.63;;;32.72;46.08
7532;BME280;3807;49.030;8.714;2023-06-22T13:02:10;98998.03;;;32.76;46.10
7532;BME280;3807;49.030;8.714;2023-06-22T13:04:35;98992.53;;;32.84;45.99
7532;BME280;3807;49.030;8.714;2023-06-22T13:07:00;98992.53;;;32.84;45.87
7532;BME280;3807;49.030;8.714;2023-06-22T13:09:26;98991.94;;;33.09;45.58
7532;BME280;3807;49.030;8.714;2023-06-22T13:11:51;98993.16;;;33.19;45.18
7532;BME280;3807;49.030;8.714;2023-06-22T13:14:17;98990.50;;;33.26;45.25
7532;BME280;3807;49.030;8.714;2023-06-22T13:16:42;99001.66;;;33.35;44.79
7532;BME280;3807;49.030;8.714;2023-06-22T13:19:08;99004.09;;;33.30;45.30
7532;BME280;3807;49.030;8.714;2023-06-22T13:21:33;99002.44;;;33.42;45.22
7532;BME280;3807;49.030;8.714;2023-06-22T13:23:59;98991.28;;;33.40;45.35